createdAt,value
2022-08-05T00:02:07.583Z,100984.09
2022-08-05T00:04:40.893Z,100991.81
2022-08-05T00:07:27.490Z,100982.09
2022-08-05T00:10:09.940Z,100994.44
2022-08-05T00:12:55.953Z,100994.53
2022-08-05T00:15:55.606Z,100994.56
2022-08-05T00:18:23.027Z,101004.34
2022-08-05T00:20:56.834Z,101004.97
2022-08-05T00:23:44.650Z,101004.84
2022-08-05T00:26:22.289Z,100994.97
2022-08-05T00:28:55.814Z,100995.00
2022-08-05T00:31:54.148Z,101000.38
2022-08-05T00:34:54.817Z,101000.09
2022-08-05T00:37:14.552Z,101001.00
2022-08-05T00:39:58.435Z,100989.50
2022-08-05T00:42:35.539Z,100985.72
2022-08-05T00:45:11.532Z,100997.81
2022-08-05T00:47:56.817Z,101006.53
2022-08-05T00:50:42.074Z,101017.00
2022-08-05T00:54:01.264Z,101018.66
2022-08-05T00:56:11.156Z,101008.22
2022-08-05T00:58:46.395Z,101012.75
2022-08-05T01:01:24.691Z,101021.47
2022-08-05T01:04:14.269Z,101018.00
2022-08-05T01:06:51.780Z,101018.03
2022-08-05T01:09:25.550Z,101019.50
2022-08-05T01:12:18.013Z,101018.44
2022-08-05T01:15:04.135Z,101010.53
2022-08-05T01:17:43.939Z,100999.06
2022-08-05T01:20:30.987Z,101008.06
2022-08-05T01:23:20.066Z,101008.94
2022-08-05T01:26:06.647Z,101010.66
2022-08-05T01:28:47.989Z,101000.88
2022-08-05T01:31:30.017Z,101004.19
2022-08-05T01:34:09.038Z,100990.00
2022-08-05T01:36:47.978Z,100958.16
2022-08-05T01:39:36.846Z,100949.75
2022-08-05T01:42:18.467Z,100943.81
2022-08-05T01:44:56.521Z,100951.75
2022-08-05T01:47:39.741Z,100957.06
2022-08-05T01:50:28.686Z,100954.25
2022-08-05T01:53:08.457Z,100941.09
2022-08-05T01:55:46.588Z,100910.38
2022-08-05T01:58:40.651Z,100900.59
2022-08-05T02:01:25.331Z,100897.81
2022-08-05T02:04:01.811Z,100893.16
2022-08-05T02:06:38.318Z,100890.28
2022-08-05T02:09:12.019Z,100899.88
2022-08-05T02:11:55.939Z,100897.41
2022-08-05T02:14:33.415Z,100899.03
2022-08-05T02:17:29.686Z,100890.44
2022-08-05T02:20:12.485Z,100879.03
2022-08-05T02:22:49.170Z,100868.28
2022-08-05T02:25:26.627Z,100849.97
2022-08-05T02:28:08.919Z,100845.53
2022-08-05T02:30:54.277Z,100851.47
2022-08-05T02:33:38.226Z,100867.06
2022-08-05T02:36:15.953Z,100876.06
2022-08-05T02:38:53.623Z,100875.78
2022-08-05T02:41:42.864Z,100888.03
2022-08-05T02:44:25.321Z,100917.13
2022-08-05T02:47:00.862Z,101003.47
2022-08-05T02:49:40.365Z,101003.00
2022-08-05T02:52:29.886Z,100970.28
2022-08-05T02:55:05.546Z,100950.28
2022-08-05T02:58:10.619Z,100921.38
2022-08-05T03:00:38.330Z,100903.94
2022-08-05T03:03:15.995Z,100894.59
2022-08-05T03:06:53.880Z,100907.25
2022-08-05T03:08:45.912Z,100913.44
2022-08-05T03:11:57.149Z,100907.81
2022-08-05T03:14:19.552Z,100902.97
2022-08-05T03:16:53.477Z,100910.50
2022-08-05T03:19:34.164Z,100898.34
2022-08-05T03:22:16.813Z,100895.69
2022-08-05T03:24:52.943Z,100896.56
2022-08-05T03:27:29.593Z,100914.16
2022-08-05T03:30:13.109Z,100923.88
2022-08-05T03:32:46.340Z,100931.59
2022-08-05T03:35:19.375Z,100930.56
2022-08-05T03:37:55.151Z,100924.63
2022-08-05T03:40:31.431Z,100940.44
2022-08-05T03:43:59.083Z,100928.09
2022-08-05T03:45:59.072Z,100932.34
2022-08-05T03:48:35.708Z,100927.97
2022-08-05T03:52:38.009Z,100928.75
2022-08-05T03:55:53.611Z,100916.34
2022-08-05T03:57:16.713Z,100906.44
2022-08-05T03:59:56.656Z,100894.88
2022-08-05T04:02:38.390Z,100897.78
2022-08-05T04:05:18.760Z,100903.13
2022-08-05T04:07:58.541Z,100917.13
2022-08-05T04:10:38.129Z,100911.81
2022-08-05T04:13:11.566Z,100922.28
2022-08-05T04:16:02.849Z,100918.88
2022-08-05T04:18:37.228Z,100910.72
2022-08-05T04:21:13.000Z,100923.13
2022-08-05T04:24:09.073Z,100920.88
2022-08-05T04:26:48.604Z,100921.66
2022-08-05T04:29:21.575Z,100915.41
2022-08-05T04:31:56.926Z,100930.44
2022-08-05T04:34:32.647Z,100939.22
2022-08-05T04:37:07.189Z,100938.34
2022-08-05T04:39:40.222Z,100949.03
2022-08-05T04:42:14.757Z,100935.28
2022-08-05T04:44:47.720Z,100944.19
2022-08-05T04:47:20.819Z,100955.44
2022-08-05T04:50:01.343Z,100963.25
2022-08-05T04:52:36.256Z,100961.38
2022-08-05T04:55:14.643Z,100967.44
2022-08-05T04:57:51.558Z,100977.78
2022-08-05T05:00:27.625Z,100993.53
2022-08-05T05:03:04.031Z,100996.38
2022-08-05T05:06:39.351Z,101002.47
2022-08-05T05:08:31.252Z,101002.78
2022-08-05T05:11:04.494Z,101022.31
2022-08-05T05:13:43.318Z,101021.47
2022-08-05T05:16:16.557Z,101026.56
2022-08-05T05:19:17.788Z,101017.72
2022-08-05T05:21:46.432Z,101006.38
2022-08-05T05:24:21.629Z,101009.13
2022-08-05T05:26:54.581Z,101005.69
2022-08-05T05:30:04.605Z,101002.00
2022-08-05T05:32:24.464Z,100988.00
2022-08-05T05:34:59.017Z,100996.06
2022-08-05T05:37:59.107Z,100983.84
2022-08-05T05:40:26.435Z,100996.22
2022-08-05T05:43:02.163Z,101009.34
2022-08-05T05:45:36.920Z,101009.44
2022-08-05T05:48:27.297Z,101010.72
2022-08-05T05:51:13.024Z,101003.59
2022-08-05T05:53:58.367Z,100999.78
2022-08-05T05:56:34.836Z,100999.91
2022-08-05T05:59:08.318Z,100999.06
2022-08-05T06:01:57.122Z,101000.75
2022-08-05T06:04:31.054Z,101016.53
2022-08-05T06:07:04.241Z,101041.94
2022-08-05T06:09:59.874Z,101042.94
2022-08-05T06:12:31.222Z,101037.75
2022-08-05T06:15:06.278Z,101037.78
2022-08-05T06:17:52.665Z,101033.63
2022-08-05T06:20:26.730Z,101012.59
2022-08-05T06:23:01.819Z,101024.94
2022-08-05T06:26:13.360Z,101024.34
2022-08-05T06:28:30.077Z,101015.66
2022-08-05T06:31:11.042Z,101011.66
2022-08-05T06:34:08.025Z,101035.13
2022-08-05T06:36:57.679Z,101044.13
2022-08-05T06:39:31.979Z,101035.41
2022-08-05T06:42:05.164Z,101032.38
2022-08-05T06:44:38.138Z,101024.03
2022-08-05T06:48:11.519Z,101015.34
2022-08-05T06:50:06.971Z,101020.53
2022-08-05T06:52:40.285Z,101029.81
2022-08-05T06:55:13.577Z,101024.47
2022-08-05T06:58:03.751Z,101029.84
2022-08-05T07:00:41.323Z,101038.91
2022-08-05T07:03:14.176Z,101053.22
2022-08-05T07:05:51.135Z,101064.78
2022-08-05T07:08:25.183Z,101047.41
2022-08-05T07:10:58.465Z,101049.47
2022-08-05T07:13:58.206Z,101042.34
2022-08-05T07:18:02.125Z,101045.94
2022-08-05T07:22:38.668Z,101041.09
2022-08-05T07:25:54.969Z,101042.81
2022-08-05T07:28:08.366Z,101035.56
2022-08-05T07:30:44.844Z,101033.59
2022-08-05T07:33:36.812Z,101039.81
2022-08-05T07:36:21.150Z,101044.09
2022-08-05T07:38:56.298Z,101051.75
2022-08-05T07:42:13.506Z,101040.97
2022-08-05T07:44:22.816Z,101037.50
2022-08-05T07:46:55.699Z,101036.34
2022-08-05T07:49:28.834Z,101031.00
2022-08-05T07:52:01.887Z,101029.31
2022-08-05T07:54:38.604Z,101030.09
2022-08-05T07:57:41.919Z,101035.22
2022-08-05T08:00:11.518Z,101038.00
2022-08-05T08:03:14.807Z,101045.00
2022-08-05T08:05:39.574Z,101064.34
2022-08-05T08:08:13.457Z,101062.06
2022-08-05T08:10:49.797Z,101052.47
2022-08-05T08:13:29.421Z,101038.19
2022-08-05T08:16:35.473Z,101045.09
2022-08-05T08:18:55.535Z,101057.38
2022-08-05T08:21:30.925Z,101052.22
2022-08-05T08:24:05.266Z,101044.25
2022-08-05T08:26:41.410Z,101046.06
2022-08-05T08:29:29.479Z,101038.19
2022-08-05T08:32:07.827Z,101042.38
2022-08-05T08:34:44.898Z,101045.84
2022-08-05T08:37:20.402Z,101043.16
2022-08-05T08:40:00.738Z,101045.84
2022-08-05T08:42:50.742Z,101049.59
2022-08-05T08:45:27.053Z,101045.41
2022-08-05T08:48:23.125Z,101052.50
2022-08-05T08:51:07.650Z,101056.03
2022-08-05T08:53:54.753Z,101068.41
2022-08-05T08:56:28.022Z,101068.38
2022-08-05T08:59:04.819Z,101064.75
2022-08-05T09:01:57.081Z,101061.88
2022-08-05T09:04:31.081Z,101088.00
2022-08-05T09:07:04.614Z,101097.00
2022-08-05T09:09:52.595Z,101092.84
2022-08-05T09:12:27.235Z,101099.00
2022-08-05T09:15:05.753Z,101112.41
2022-08-05T09:17:43.128Z,101107.09
2022-08-05T09:20:36.587Z,101106.34
2022-08-05T09:23:19.518Z,101109.44
2022-08-05T09:26:09.354Z,101111.06
2022-08-05T09:28:42.538Z,101113.69
2022-08-05T09:31:44.139Z,101112.25
2022-08-05T09:34:13.034Z,101110.88
2022-08-05T09:36:55.280Z,101113.19
2022-08-05T09:39:45.865Z,101099.22
2022-08-05T09:42:28.437Z,101097.50
2022-08-05T09:46:05.036Z,101103.69
2022-08-05T09:48:20.110Z,101105.47
2022-08-05T09:50:56.338Z,101095.03
2022-08-05T09:53:54.884Z,101088.06
2022-08-05T09:56:27.565Z,101083.59
2022-08-05T09:59:03.200Z,101081.69
2022-08-05T10:01:40.435Z,101081.59
2022-08-05T10:04:28.612Z,101087.03
2022-08-05T10:07:06.142Z,101087.13
2022-08-05T10:10:13.899Z,101086.56
2022-08-05T10:12:51.399Z,101092.44
2022-08-05T10:15:28.483Z,101097.09
2022-08-05T10:18:09.625Z,101101.34
2022-08-05T10:20:47.908Z,101114.47
2022-08-05T10:23:55.352Z,101119.44
2022-08-05T10:26:18.520Z,101115.31
2022-08-05T10:28:53.062Z,101126.66
2022-08-05T10:32:52.876Z,101115.59
2022-08-05T10:34:25.883Z,101125.81
2022-08-05T10:37:04.519Z,101117.09
2022-08-05T10:39:59.153Z,101116.16
2022-08-05T10:42:38.512Z,101121.81
2022-08-05T10:45:24.070Z,101133.03
2022-08-05T10:48:52.499Z,101131.00
2022-08-05T10:51:28.899Z,101140.47
2022-08-05T10:54:05.818Z,101146.03
2022-08-05T10:56:57.258Z,101143.47
2022-08-05T11:00:03.501Z,101131.78
2022-08-05T11:02:37.475Z,101134.34
2022-08-05T11:05:12.000Z,101151.78
2022-08-05T11:08:02.593Z,101170.28
2022-08-05T11:10:50.195Z,101179.00
2022-08-05T11:13:55.005Z,101184.19
2022-08-05T11:16:47.962Z,101182.69
2022-08-05T11:20:10.030Z,101186.31
2022-08-05T11:22:42.647Z,101183.88
2022-08-05T11:26:04.903Z,101189.78
2022-08-05T11:28:44.717Z,101190.97
2022-08-05T11:31:57.801Z,101194.56
2022-08-05T11:34:38.749Z,101204.38
2022-08-05T11:38:26.164Z,101191.84
2022-08-05T11:40:05.798Z,101187.22
2022-08-05T11:42:42.251Z,101209.66
2022-08-05T11:46:15.689Z,101212.34
2022-08-05T11:48:12.245Z,101210.81
2022-08-05T11:50:49.315Z,101213.63
2022-08-05T11:53:23.144Z,101222.97
2022-08-05T11:56:00.876Z,101210.84
2022-08-05T11:58:36.780Z,101218.72
2022-08-05T12:01:12.661Z,101227.53
2022-08-05T12:03:55.544Z,101232.59
2022-08-05T12:06:30.396Z,101219.56
2022-08-05T12:09:05.778Z,101228.81
2022-08-05T12:11:40.318Z,101227.09
2022-08-05T12:14:14.835Z,101242.50
2022-08-05T12:16:56.506Z,101240.91
2022-08-05T12:20:26.825Z,101245.75
2022-08-05T12:22:29.490Z,101246.88
2022-08-05T12:25:06.408Z,101250.66
2022-08-05T12:27:53.133Z,101253.94
2022-08-05T12:30:29.097Z,101259.44
2022-08-05T12:33:27.802Z,101260.03
2022-08-05T12:36:02.070Z,101252.59
2022-08-05T12:38:35.898Z,101262.88
2022-08-05T12:41:13.170Z,101254.34
2022-08-05T12:43:52.062Z,101241.34
2022-08-05T12:46:29.031Z,101244.19
2022-08-05T12:49:13.780Z,101258.97
2022-08-05T12:52:13.552Z,101253.53
2022-08-05T12:54:42.919Z,101267.00
2022-08-05T12:57:16.709Z,101260.22
2022-08-05T13:02:03.861Z,101253.03
2022-08-05T13:02:47.121Z,101262.28
2022-08-05T13:05:21.925Z,101258.91
2022-08-05T13:07:59.805Z,101254.78
2022-08-05T13:10:33.960Z,101261.09
2022-08-05T13:13:08.815Z,101255.53
2022-08-05T13:15:50.886Z,101253.00
2022-08-05T13:18:24.205Z,101273.38
2022-08-05T13:20:58.688Z,101270.63
2022-08-05T13:23:31.676Z,101262.22
2022-08-05T13:26:07.573Z,101270.16
2022-08-05T13:28:44.360Z,101266.47
2022-08-05T13:31:17.392Z,101270.81
2022-08-05T13:34:22.502Z,101263.91
2022-08-05T13:37:00.507Z,101277.31
2022-08-05T13:40:13.859Z,101274.88
2022-08-05T13:42:27.493Z,101273.84
2022-08-05T13:45:01.698Z,101264.47
2022-08-05T13:48:08.958Z,101256.97
2022-08-05T13:50:28.443Z,101255.22
2022-08-05T13:53:03.096Z,101259.16
2022-08-05T13:55:49.287Z,101261.22
2022-08-05T13:58:30.619Z,101257.47
2022-08-05T14:01:05.172Z,101256.69
2022-08-05T14:03:40.621Z,101260.28
2022-08-05T14:06:26.154Z,101256.53
2022-08-05T14:09:01.818Z,101260.19
2022-08-05T14:12:04.267Z,101257.09
2022-08-05T14:14:34.551Z,101258.69
2022-08-05T14:17:07.540Z,101256.88
2022-08-05T14:19:54.559Z,101255.81
2022-08-05T14:22:30.325Z,101267.41
2022-08-05T14:25:06.357Z,101271.91
2022-08-05T14:27:54.341Z,101270.31
2022-08-05T14:30:28.399Z,101267.84
2022-08-05T14:33:04.670Z,101267.84
2022-08-05T14:35:51.357Z,101260.88
2022-08-05T14:38:31.859Z,101258.03
2022-08-05T14:41:08.236Z,101250.69
2022-08-05T14:44:02.221Z,101259.41
2022-08-05T14:46:35.168Z,101256.28
2022-08-05T14:49:08.460Z,101256.31
2022-08-05T14:51:42.406Z,101250.38
2022-08-05T14:54:28.559Z,101261.72
2022-08-05T14:57:05.336Z,101267.47
2022-08-05T14:59:42.753Z,101270.16
2022-08-05T15:02:16.281Z,101277.50
2022-08-05T15:04:49.876Z,101281.13
2022-08-05T15:08:12.435Z,101288.28
2022-08-05T15:10:15.839Z,101283.03
2022-08-05T15:13:01.156Z,101278.56
2022-08-05T15:15:55.984Z,101281.28
2022-08-05T15:18:29.425Z,101267.91
2022-08-05T15:21:07.622Z,101260.31
2022-08-05T15:23:41.065Z,101262.97
2022-08-05T15:26:15.447Z,101254.03
2022-08-05T15:29:06.641Z,101262.88
2022-08-05T15:31:40.635Z,101260.63
2022-08-05T15:34:32.076Z,101272.84
2022-08-05T15:37:15.518Z,101267.66
2022-08-05T15:41:04.090Z,101276.97
2022-08-05T15:42:55.250Z,101321.31
2022-08-05T15:45:38.268Z,101334.59
2022-08-05T15:48:13.976Z,101335.75
2022-08-05T15:50:47.891Z,101346.06
2022-08-05T15:53:21.362Z,101326.91
2022-08-05T15:56:03.887Z,101333.91
2022-08-05T15:58:37.932Z,101331.13
2022-08-05T16:01:17.346Z,101342.59
2022-08-05T16:03:51.222Z,101349.41
2022-08-05T16:06:24.864Z,101341.22
2022-08-05T16:08:57.931Z,101333.13
2022-08-05T16:11:42.713Z,101342.72
2022-08-05T16:14:17.248Z,101347.06
2022-08-05T16:16:52.176Z,101341.66
2022-08-05T16:20:05.575Z,101339.81
2022-08-05T16:22:19.164Z,101348.69
2022-08-05T16:25:00.637Z,101354.97
2022-08-05T16:28:00.134Z,101354.13
2022-08-05T16:30:36.177Z,101354.13
2022-08-05T16:33:10.719Z,101354.97
2022-08-05T16:35:44.662Z,101353.22
2022-08-05T16:38:25.638Z,101362.84
2022-08-05T16:41:02.274Z,101359.75
2022-08-05T16:43:56.307Z,101357.38
2022-08-05T16:46:29.786Z,101369.72
2022-08-05T16:49:07.493Z,101381.06
2022-08-05T16:51:50.178Z,101368.78
2022-08-05T16:54:28.942Z,101371.47
2022-08-05T16:57:06.737Z,101377.69
2022-08-05T17:00:03.103Z,101386.63
2022-08-05T17:02:40.700Z,101382.09
2022-08-05T17:05:15.245Z,101387.19
2022-08-05T17:07:54.711Z,101392.13
2022-08-05T17:10:30.529Z,101383.69
2022-08-05T17:13:03.787Z,101394.34
2022-08-05T17:15:47.909Z,101392.44
2022-08-05T17:18:22.652Z,101406.44
2022-08-05T17:20:57.046Z,101407.38
2022-08-05T17:24:05.510Z,101412.47
2022-08-05T17:26:23.360Z,101409.63
2022-08-05T17:28:56.445Z,101422.94
2022-08-05T17:31:41.243Z,101428.44
2022-08-05T17:34:29.780Z,101429.13
2022-08-05T17:37:39.288Z,101435.84
2022-08-05T17:40:00.251Z,101439.63
2022-08-05T17:42:33.524Z,101441.97
2022-08-05T17:45:09.945Z,101447.13
2022-08-05T17:47:56.275Z,101447.72
2022-08-05T17:50:33.146Z,101461.59
2022-08-05T17:53:08.430Z,101464.13
2022-08-05T17:55:42.032Z,101457.72
2022-08-05T17:58:16.453Z,101464.00
2022-08-05T18:00:54.397Z,101463.38
2022-08-05T18:06:29.299Z,101472.94
2022-08-05T18:09:05.501Z,101473.78
2022-08-05T18:11:42.481Z,101482.78
2022-08-05T18:14:20.750Z,101480.78
2022-08-05T18:16:53.758Z,101485.94
2022-08-05T18:19:26.793Z,101489.31
2022-08-05T18:22:08.499Z,101498.81
2022-08-05T18:24:45.594Z,101497.03
2022-08-05T18:27:19.159Z,101496.75
2022-08-05T18:29:54.803Z,101498.84
2022-08-05T18:32:29.567Z,101495.25
2022-08-05T18:35:02.919Z,101500.41
2022-08-05T18:37:40.235Z,101503.69
2022-08-05T18:41:50.332Z,101502.72
2022-08-05T18:43:09.187Z,101512.16
2022-08-05T18:45:49.640Z,101517.44
2022-08-05T18:48:31.252Z,101522.22
2022-08-05T18:52:03.317Z,101523.06
2022-08-05T18:54:16.939Z,101523.66
2022-08-05T18:56:52.186Z,101522.63
2022-08-05T18:59:42.967Z,101533.91
2022-08-05T19:02:26.728Z,101531.72
2022-08-05T19:06:05.291Z,101532.31
2022-08-05T19:07:56.232Z,101550.94
2022-08-05T19:10:31.417Z,101555.28
2022-08-05T19:13:05.970Z,101546.50
2022-08-05T19:15:59.323Z,101563.00
2022-08-05T19:18:33.736Z,101560.38
2022-08-05T19:21:07.656Z,101568.00
2022-08-05T19:24:07.341Z,101568.84
2022-08-05T19:26:33.749Z,101570.22
2022-08-05T19:29:08.089Z,101576.38
2022-08-05T19:31:44.732Z,101588.78
2022-08-05T19:34:23.944Z,101586.81
2022-08-05T19:36:56.959Z,101595.31
2022-08-05T19:39:30.584Z,101595.59
2022-08-05T19:42:07.831Z,101604.03
2022-08-05T19:44:45.016Z,101607.16
2022-08-05T19:47:19.801Z,101608.56
2022-08-05T19:49:57.362Z,101610.16
2022-08-05T19:52:40.475Z,101614.66
2022-08-05T19:56:14.122Z,101617.13
2022-08-05T19:58:28.639Z,101621.56
2022-08-05T20:01:01.959Z,101625.00
2022-08-05T20:03:40.643Z,101627.50
2022-08-05T20:06:15.910Z,101633.41
2022-08-05T20:09:06.074Z,101635.03
2022-08-05T20:11:48.051Z,101639.09
2022-08-05T20:14:27.138Z,101645.00
2022-08-05T20:17:04.838Z,101638.69
2022-08-05T20:19:41.447Z,101639.38
2022-08-05T20:22:15.196Z,101644.53
2022-08-05T20:24:48.071Z,101653.13
2022-08-05T20:27:23.169Z,101643.44
2022-08-05T20:30:02.085Z,101657.16
2022-08-05T20:32:36.953Z,101656.94
2022-08-05T20:35:18.344Z,101653.97
2022-08-05T20:38:06.331Z,101655.50
2022-08-05T20:40:43.136Z,101665.94
2022-08-05T20:43:16.270Z,101664.91
2022-08-05T20:45:57.011Z,101668.38
2022-08-05T20:48:36.631Z,101672.81
2022-08-05T20:51:10.024Z,101670.28
2022-08-05T20:53:43.166Z,101677.22
2022-08-05T20:56:34.161Z,101671.97
2022-08-05T20:59:26.489Z,101684.50
2022-08-05T21:02:00.261Z,101684.69
2022-08-05T21:04:34.787Z,101688.94
2022-08-05T21:07:10.573Z,101685.41
2022-08-05T21:09:50.148Z,101695.09
2022-08-05T21:12:26.598Z,101687.72
2022-08-05T21:14:59.874Z,101700.16
2022-08-05T21:17:32.754Z,101704.50
2022-08-05T21:20:09.985Z,101702.06
2022-08-05T21:22:43.326Z,101700.16
2022-08-05T21:25:16.635Z,101708.31
2022-08-05T21:27:52.671Z,101714.38
2022-08-05T21:30:26.125Z,101718.06
2022-08-05T21:32:59.746Z,101712.91
2022-08-05T21:35:55.378Z,101707.72
2022-08-05T21:38:29.143Z,101709.06
2022-08-05T21:41:02.352Z,101703.88
2022-08-05T21:43:41.432Z,101712.66
2022-08-05T21:46:14.880Z,101710.47
2022-08-05T21:48:50.912Z,101712.75
2022-08-05T21:52:22.133Z,101716.28
2022-08-05T21:54:27.886Z,101719.00
2022-08-05T21:57:29.644Z,101713.19
2022-08-05T22:00:06.227Z,101722.59
2022-08-05T22:02:40.247Z,101715.97
2022-08-05T22:05:15.131Z,101715.88
2022-08-05T22:07:59.134Z,101716.03
2022-08-05T22:10:35.291Z,101713.50
2022-08-05T22:14:05.247Z,101716.78
2022-08-05T22:16:15.373Z,101725.09
2022-08-05T22:18:54.632Z,101731.91
2022-08-05T22:21:31.908Z,101730.03
2022-08-05T22:24:40.895Z,101731.00
2022-08-05T22:28:11.308Z,101738.16
2022-08-05T22:30:38.315Z,101741.69
2022-08-05T22:33:56.524Z,101746.59
2022-08-05T22:36:24.100Z,101745.44
2022-08-05T22:38:57.656Z,101738.31
2022-08-05T22:42:11.835Z,101736.50
2022-08-05T22:44:37.040Z,101746.91
2022-08-05T22:47:11.201Z,101746.25
2022-08-05T22:50:23.190Z,101754.69
2022-08-05T22:52:39.911Z,101741.56
2022-08-05T22:55:19.230Z,101745.19
2022-08-05T22:57:55.676Z,101749.97
2022-08-05T23:00:31.335Z,101757.84
2022-08-05T23:03:04.567Z,101751.69
2022-08-05T23:05:37.710Z,101751.44
2022-08-05T23:08:12.324Z,101753.81
2022-08-05T23:10:55.913Z,101754.63
2022-08-05T23:13:30.364Z,101761.50
2022-08-05T23:16:03.456Z,101759.31
2022-08-05T23:18:36.723Z,101759.31
2022-08-05T23:21:11.608Z,101763.06
2022-08-05T23:23:49.448Z,101764.47
2022-08-05T23:26:22.447Z,101773.09
2022-08-05T23:29:02.093Z,101763.97
2022-08-05T23:31:37.573Z,101768.47
2022-08-05T23:34:10.486Z,101781.75
2022-08-05T23:36:44.602Z,101782.75
2022-08-05T23:39:32.275Z,101789.09
2022-08-05T23:42:14.200Z,101798.75
2022-08-05T23:44:54.432Z,101790.44
2022-08-05T23:47:27.722Z,101799.13
2022-08-05T23:50:09.317Z,101794.63
2022-08-05T23:52:49.553Z,101795.16
2022-08-05T23:55:24.616Z,101801.81
2022-08-05T23:58:04.598Z,101803.03
